createdAt,value
2018-07-06T00:00:04.299Z,18.37
2018-07-06T00:01:10.846Z,18.35
2018-07-06T00:02:17.402Z,18.36
2018-07-06T00:03:23.945Z,18.38
2018-07-06T00:04:30.467Z,18.44
2018-07-06T00:05:37.071Z,18.46
2018-07-06T00:06:43.549Z,18.44
2018-07-06T00:07:50.088Z,18.44
2018-07-06T00:08:56.645Z,18.46
2018-07-06T00:10:03.169Z,18.47
2018-07-06T00:11:09.725Z,18.49
2018-07-06T00:12:16.317Z,18.47
2018-07-06T00:13:22.853Z,18.44
2018-07-06T00:14:29.354Z,18.40
2018-07-06T00:15:35.871Z,18.38
2018-07-06T00:16:42.901Z,18.43
2018-07-06T00:17:48.963Z,18.41
2018-07-06T00:18:55.493Z,18.47
2018-07-06T00:20:02.033Z,18.52
2018-07-06T00:21:08.588Z,18.53
2018-07-06T00:22:15.108Z,18.53
2018-07-06T00:23:21.657Z,18.49
2018-07-06T00:24:28.174Z,18.51
2018-07-06T00:25:34.707Z,18.53
2018-07-06T00:26:41.255Z,18.56
2018-07-06T00:27:47.820Z,18.59
2018-07-06T00:28:55.310Z,18.63
2018-07-06T00:30:00.870Z,18.65
2018-07-06T00:32:13.908Z,18.57
2018-07-06T00:33:20.444Z,18.60
2018-07-06T00:34:27.292Z,18.63
2018-07-06T00:35:33.501Z,18.66
2018-07-06T00:36:40.102Z,18.70
2018-07-06T00:37:46.581Z,18.73
2018-07-06T00:38:53.118Z,18.76
2018-07-06T00:39:59.680Z,18.87
2018-07-06T00:41:06.236Z,18.87
2018-07-06T00:42:12.719Z,18.86
2018-07-06T00:43:19.255Z,18.82
2018-07-06T00:44:25.896Z,18.76
2018-07-06T00:45:32.319Z,18.69
2018-07-06T00:46:38.872Z,18.70
2018-07-06T00:47:45.394Z,18.68
2018-07-06T00:48:52.016Z,18.77
2018-07-06T00:51:04.993Z,18.91
2018-07-06T00:52:11.528Z,18.94
2018-07-06T00:53:18.074Z,18.96
2018-07-06T00:54:24.624Z,18.97
2018-07-06T00:55:31.134Z,18.98
2018-07-06T00:56:37.667Z,19.00
2018-07-06T00:57:44.201Z,19.04
2018-07-06T00:58:50.733Z,19.06
2018-07-06T00:59:57.287Z,19.07
2018-07-06T01:01:03.894Z,19.02
2018-07-06T01:02:10.330Z,19.03
2018-07-06T01:03:16.853Z,19.03
2018-07-06T01:04:23.383Z,19.03
2018-07-06T01:05:29.917Z,19.03
2018-07-06T01:06:37.463Z,19.09
2018-07-06T01:07:42.970Z,19.11
2018-07-06T01:08:49.492Z,19.14
2018-07-06T01:09:56.037Z,19.19
2018-07-06T01:11:02.560Z,19.19
2018-07-06T01:12:09.079Z,19.15
2018-07-06T01:13:15.616Z,19.15
2018-07-06T01:14:22.150Z,19.19
2018-07-06T01:15:28.739Z,19.18
2018-07-06T01:16:35.402Z,19.13
2018-07-06T01:17:41.725Z,19.11
2018-07-06T01:18:48.236Z,19.11
2018-07-06T01:19:54.764Z,19.09
2018-07-06T01:21:01.308Z,19.07
2018-07-06T01:22:07.826Z,19.07
2018-07-06T01:23:14.341Z,19.07
2018-07-06T01:24:20.871Z,19.05
2018-07-06T01:25:27.394Z,19.04
2018-07-06T01:26:33.910Z,19.02
2018-07-06T01:27:40.421Z,19.02
2018-07-06T01:28:46.949Z,19.04
2018-07-06T01:29:53.495Z,19.09
2018-07-06T01:31:00.009Z,19.09
2018-07-06T01:32:06.573Z,19.10
2018-07-06T01:33:13.485Z,19.07
2018-07-06T01:34:20.539Z,19.06
2018-07-06T01:35:26.097Z,19.08
2018-07-06T01:36:32.614Z,19.09
2018-07-06T01:37:39.178Z,19.08
2018-07-06T01:38:45.738Z,19.03
2018-07-06T01:39:53.178Z,18.95
2018-07-06T01:40:58.674Z,18.93
2018-07-06T01:42:05.188Z,18.90
2018-07-06T01:43:11.703Z,18.91
2018-07-06T01:44:18.271Z,18.91
2018-07-06T01:45:25.202Z,18.86
2018-07-06T01:46:32.205Z,18.78
2018-07-06T01:47:37.768Z,18.72
2018-07-06T01:48:44.273Z,18.71
2018-07-06T01:49:50.794Z,18.69
2018-07-06T01:50:57.313Z,18.71
2018-07-06T01:52:03.824Z,18.74
2018-07-06T01:53:10.338Z,18.70
2018-07-06T01:54:16.888Z,18.66
2018-07-06T01:55:23.359Z,18.65
2018-07-06T01:56:29.879Z,18.64
2018-07-06T01:57:36.379Z,18.62
2018-07-06T01:58:42.884Z,18.60
2018-07-06T01:59:49.402Z,18.60
2018-07-06T02:00:55.903Z,18.61
2018-07-06T02:02:02.426Z,18.61
2018-07-06T02:03:08.920Z,18.58
2018-07-06T02:04:15.438Z,18.56
2018-07-06T02:05:21.954Z,18.54
2018-07-06T02:06:28.458Z,18.53
2018-07-06T02:07:34.957Z,18.52
2018-07-06T02:08:41.454Z,18.43
2018-07-06T02:09:48.964Z,18.39
2018-07-06T02:10:54.489Z,18.36
2018-07-06T02:12:00.999Z,18.33
2018-07-06T02:13:07.935Z,18.35
2018-07-06T02:14:14.439Z,18.32
2018-07-06T02:15:20.494Z,18.30
2018-07-06T02:16:26.992Z,18.28
2018-07-06T02:17:33.491Z,18.24
2018-07-06T02:18:39.977Z,18.21
2018-07-06T02:19:46.470Z,18.22
2018-07-06T02:20:52.971Z,18.17
2018-07-06T02:21:59.475Z,18.10
2018-07-06T02:23:06.972Z,18.04
2018-07-06T02:24:12.465Z,18.04
2018-07-06T02:25:18.970Z,18.08
2018-07-06T02:26:25.467Z,18.07
2018-07-06T02:27:31.968Z,18.10
2018-07-06T02:28:38.451Z,18.09
2018-07-06T02:29:44.967Z,18.04
2018-07-06T02:30:51.430Z,18.03
2018-07-06T02:31:57.966Z,17.98
2018-07-06T02:33:04.427Z,17.95
2018-07-06T02:34:10.912Z,17.95
2018-07-06T02:35:17.910Z,17.91
2018-07-06T02:36:23.907Z,17.90
2018-07-06T02:37:30.399Z,17.88
2018-07-06T02:38:36.877Z,17.86
2018-07-06T02:39:43.389Z,17.86
2018-07-06T02:40:49.859Z,17.83
2018-07-06T02:41:56.330Z,17.82
2018-07-06T02:43:02.923Z,17.80
2018-07-06T02:44:09.314Z,17.76
2018-07-06T02:45:15.785Z,17.71
2018-07-06T02:46:22.285Z,17.66
2018-07-06T02:47:28.778Z,17.60
2018-07-06T02:48:35.248Z,17.57
2018-07-06T02:49:41.724Z,17.54
2018-07-06T02:50:48.216Z,17.53
2018-07-06T02:51:54.692Z,17.49
2018-07-06T02:53:01.241Z,17.49
2018-07-06T02:54:07.652Z,17.47
2018-07-06T02:55:14.176Z,17.46
2018-07-06T02:56:20.620Z,17.48
2018-07-06T02:57:27.085Z,17.46
2018-07-06T02:58:33.579Z,17.51
2018-07-06T02:59:40.040Z,17.54
2018-07-06T03:00:46.534Z,17.54
2018-07-06T03:01:53.014Z,17.53
2018-07-06T03:02:59.483Z,17.50
2018-07-06T03:04:06.949Z,17.47
2018-07-06T03:05:12.435Z,17.45
2018-07-06T03:06:19.396Z,17.45
2018-07-06T03:07:25.378Z,17.45
2018-07-06T03:08:31.865Z,17.46
2018-07-06T03:09:38.332Z,17.43
2018-07-06T03:10:44.804Z,17.42
2018-07-06T03:11:51.270Z,17.41
2018-07-06T03:12:57.741Z,17.42
2018-07-06T03:14:04.222Z,17.47
2018-07-06T03:15:10.690Z,17.44
2018-07-06T03:16:17.157Z,17.44
2018-07-06T03:17:23.631Z,17.40
2018-07-06T03:18:30.107Z,17.38
2018-07-06T03:19:36.572Z,17.43
2018-07-06T03:20:43.042Z,17.44
2018-07-06T03:21:49.514Z,17.41
2018-07-06T03:22:55.977Z,17.39
2018-07-06T03:24:02.457Z,17.33
2018-07-06T03:25:08.923Z,17.28
2018-07-06T03:26:15.401Z,17.24
2018-07-06T03:27:21.865Z,17.19
2018-07-06T03:28:28.518Z,17.12
2018-07-06T03:29:35.287Z,17.07
2018-07-06T03:30:41.257Z,17.01
2018-07-06T03:31:48.717Z,16.95
2018-07-06T03:32:54.182Z,16.93
2018-07-06T03:34:00.655Z,16.93
2018-07-06T03:35:07.104Z,16.97
2018-07-06T03:36:13.569Z,16.98
2018-07-06T03:37:20.030Z,16.99
2018-07-06T03:38:26.489Z,16.98
2018-07-06T03:39:32.946Z,16.98
2018-07-06T03:40:39.411Z,16.97
2018-07-06T03:41:45.877Z,16.91
2018-07-06T03:42:52.334Z,16.86
2018-07-06T03:43:58.783Z,16.86
2018-07-06T03:45:05.241Z,16.86
2018-07-06T03:46:11.696Z,16.87
2018-07-06T03:47:18.158Z,16.89
2018-07-06T03:48:24.618Z,16.92
2018-07-06T03:49:31.090Z,16.91
2018-07-06T03:50:37.558Z,16.89
2018-07-06T03:51:43.998Z,16.84
2018-07-06T03:52:50.460Z,16.79
2018-07-06T03:53:56.927Z,16.76
2018-07-06T03:55:03.401Z,16.72
2018-07-06T03:56:10.846Z,16.74
2018-07-06T03:57:16.318Z,16.74
2018-07-06T03:58:22.774Z,16.76
2018-07-06T03:59:29.241Z,16.77
2018-07-06T04:00:35.701Z,16.75
2018-07-06T04:01:42.168Z,16.72
2018-07-06T04:02:48.627Z,16.72
2018-07-06T04:03:55.085Z,16.72
2018-07-06T04:05:01.558Z,16.71
2018-07-06T04:06:08.009Z,16.73
2018-07-06T04:07:14.471Z,16.74
2018-07-06T04:08:20.946Z,16.73
2018-07-06T04:09:28.407Z,16.72
2018-07-06T04:10:33.862Z,16.73
2018-07-06T04:11:40.339Z,16.75
2018-07-06T04:12:46.800Z,16.77
2018-07-06T04:13:53.256Z,16.80
2018-07-06T04:14:59.731Z,16.84
2018-07-06T04:16:06.325Z,16.86
2018-07-06T04:17:12.655Z,16.89
2018-07-06T04:18:19.129Z,16.92
2018-07-06T04:19:25.604Z,16.96
2018-07-06T04:20:32.071Z,17.00
2018-07-06T04:21:38.534Z,17.05
2018-07-06T04:22:45.019Z,17.08
2018-07-06T04:23:51.469Z,17.13
2018-07-06T04:24:57.955Z,17.19
2018-07-06T04:26:04.422Z,17.25
2018-07-06T04:27:10.886Z,17.31
2018-07-06T04:28:17.367Z,17.33
2018-07-06T04:29:23.845Z,17.38
2018-07-06T04:30:30.324Z,17.44
2018-07-06T04:31:36.816Z,17.49
2018-07-06T04:32:43.273Z,17.56
2018-07-06T04:33:49.761Z,17.61
2018-07-06T04:34:56.245Z,17.67
2018-07-06T04:36:02.730Z,17.72
2018-07-06T04:37:09.214Z,17.80
2018-07-06T04:38:15.704Z,17.88
2018-07-06T04:39:23.188Z,17.91
2018-07-06T04:40:28.680Z,17.95
2018-07-06T04:41:35.169Z,18.03
2018-07-06T04:42:41.667Z,18.07
2018-07-06T04:43:48.151Z,18.12
2018-07-06T04:44:54.646Z,18.23
2018-07-06T04:46:01.165Z,18.29
2018-07-06T04:47:07.642Z,18.32
2018-07-06T04:48:14.151Z,18.39
2018-07-06T04:49:20.644Z,18.44
2018-07-06T04:50:27.163Z,18.46
2018-07-06T04:51:33.676Z,18.51
2018-07-06T04:52:40.176Z,18.54
2018-07-06T04:53:46.697Z,18.56
2018-07-06T04:54:53.194Z,18.56
2018-07-06T04:55:59.714Z,18.59
2018-07-06T04:57:06.226Z,18.65
2018-07-06T04:58:12.742Z,18.72
2018-07-06T04:59:19.269Z,18.79
2018-07-06T05:00:25.903Z,18.85
2018-07-06T05:01:32.310Z,18.87
2018-07-06T05:02:39.894Z,18.85
2018-07-06T05:03:45.374Z,18.90
2018-07-06T05:04:51.894Z,18.94
2018-07-06T05:05:58.440Z,18.98
2018-07-06T05:07:04.961Z,19.01
2018-07-06T05:08:11.482Z,19.03
2018-07-06T05:09:18.016Z,19.06
2018-07-06T05:10:24.543Z,19.08
2018-07-06T05:11:31.075Z,19.12
2018-07-06T05:12:37.596Z,19.16
2018-07-06T05:13:44.123Z,19.18
2018-07-06T05:14:50.644Z,19.22
2018-07-06T05:15:57.185Z,19.24
2018-07-06T05:17:03.763Z,19.26
2018-07-06T05:18:10.251Z,19.28
2018-07-06T05:19:16.768Z,19.29
2018-07-06T05:20:24.294Z,19.27
2018-07-06T05:21:29.840Z,19.27
2018-07-06T05:22:36.421Z,19.27
2018-07-06T05:23:42.897Z,19.27
2018-07-06T05:24:49.422Z,19.25
2018-07-06T05:25:55.959Z,19.21
2018-07-06T05:27:02.495Z,19.19
2018-07-06T05:28:09.018Z,19.19
2018-07-06T05:29:15.561Z,19.27
2018-07-06T05:30:22.095Z,19.40
2018-07-06T05:31:28.638Z,19.48
2018-07-06T05:32:35.180Z,19.48
2018-07-06T05:33:41.722Z,19.45
2018-07-06T05:34:48.300Z,19.41
2018-07-06T05:35:54.789Z,19.33
2018-07-06T05:37:01.325Z,19.16
2018-07-06T05:38:07.852Z,19.06
2018-07-06T05:39:14.382Z,18.97
2018-07-06T05:40:20.916Z,18.91
2018-07-06T05:41:27.452Z,18.89
2018-07-06T05:42:33.982Z,18.89
2018-07-06T05:43:40.507Z,18.89
2018-07-06T05:44:47.039Z,18.88
2018-07-06T05:45:53.566Z,18.86
2018-07-06T05:47:00.103Z,18.88
2018-07-06T05:48:06.639Z,18.86
2018-07-06T05:49:13.153Z,18.84
2018-07-06T05:50:19.675Z,18.81
2018-07-06T05:51:26.202Z,18.78
2018-07-06T05:52:32.738Z,18.76
2018-07-06T05:53:39.256Z,18.74
2018-07-06T05:54:45.796Z,18.72
2018-07-06T05:55:52.305Z,18.73
2018-07-06T05:56:58.840Z,18.77
2018-07-06T05:58:05.363Z,18.83
2018-07-06T05:59:11.929Z,18.90
2018-07-06T06:00:18.405Z,18.95
2018-07-06T06:01:24.937Z,19.13
2018-07-06T06:02:31.472Z,19.30
2018-07-06T06:03:37.988Z,19.43
2018-07-06T06:04:44.579Z,19.44
2018-07-06T06:05:52.060Z,19.43
2018-07-06T06:06:57.603Z,19.42
2018-07-06T06:08:04.130Z,19.45
2018-07-06T06:09:10.682Z,19.48
2018-07-06T06:10:17.191Z,19.54
2018-07-06T06:11:23.716Z,19.58
2018-07-06T06:12:30.257Z,19.55
2018-07-06T06:13:36.793Z,19.51
2018-07-06T06:14:43.319Z,19.56
2018-07-06T06:15:49.849Z,19.57
2018-07-06T06:16:56.417Z,19.53
2018-07-06T06:18:02.914Z,19.52
2018-07-06T06:19:09.453Z,19.55
2018-07-06T06:20:15.985Z,19.54
2018-07-06T06:21:22.527Z,19.53
2018-07-06T06:22:29.081Z,19.52
2018-07-06T06:23:35.610Z,19.53
2018-07-06T06:24:42.174Z,19.49
2018-07-06T06:25:48.688Z,19.52
2018-07-06T06:26:55.240Z,19.56
2018-07-06T06:28:02.676Z,19.61
2018-07-06T06:29:08.331Z,19.68
2018-07-06T06:30:15.904Z,19.65
2018-07-06T06:31:21.427Z,19.68
2018-07-06T06:32:27.986Z,19.68
2018-07-06T06:33:34.563Z,19.67
2018-07-06T06:34:41.083Z,19.68
2018-07-06T06:35:47.627Z,19.82
2018-07-06T06:36:54.179Z,19.81
2018-07-06T06:38:00.739Z,19.80
2018-07-06T06:39:07.299Z,19.83
2018-07-06T06:40:13.847Z,19.86
2018-07-06T06:41:20.440Z,19.89
2018-07-06T06:42:27.955Z,19.91
2018-07-06T06:43:33.516Z,19.94
2018-07-06T06:44:40.079Z,19.89
2018-07-06T06:45:46.627Z,19.95
2018-07-06T06:46:53.190Z,19.97
2018-07-06T06:47:59.755Z,20.05
2018-07-06T06:49:06.326Z,20.14
2018-07-06T06:50:12.883Z,20.21
2018-07-06T06:51:19.457Z,20.20
2018-07-06T06:52:26.038Z,20.24
2018-07-06T06:53:32.621Z,20.30
2018-07-06T06:54:39.195Z,20.35
2018-07-06T06:55:45.764Z,20.37
2018-07-06T06:56:52.345Z,20.45
2018-07-06T06:57:58.935Z,20.59
2018-07-06T06:59:05.547Z,20.64
2018-07-06T07:00:12.109Z,20.71
2018-07-06T07:01:18.706Z,20.84
2018-07-06T07:02:25.291Z,20.93
2018-07-06T07:03:31.896Z,20.97
2018-07-06T07:04:38.514Z,20.90
2018-07-06T07:05:45.093Z,20.85
2018-07-06T07:06:52.690Z,20.82
2018-07-06T07:07:58.301Z,20.96
2018-07-06T07:09:04.919Z,21.09
2018-07-06T07:10:11.521Z,21.34
2018-07-06T07:11:18.130Z,21.62
2018-07-06T07:12:24.745Z,21.89
2018-07-06T07:13:31.366Z,22.04
2018-07-06T07:14:37.998Z,22.18
2018-07-06T07:15:44.616Z,22.36
2018-07-06T07:16:51.261Z,22.51
2018-07-06T07:17:57.895Z,22.51
2018-07-06T07:19:04.536Z,23.12
2018-07-06T07:20:11.161Z,23.72
2018-07-06T07:21:17.892Z,24.88
2018-07-06T07:22:24.448Z,26.23
2018-07-06T07:23:31.110Z,26.70
2018-07-06T07:24:37.776Z,28.67
2018-07-06T07:25:44.438Z,29.34
2018-07-06T07:26:52.122Z,29.46
2018-07-06T07:27:57.891Z,30.81
2018-07-06T07:29:04.484Z,29.75
2018-07-06T07:30:11.174Z,28.09
2018-07-06T07:31:17.860Z,26.81
2018-07-06T07:32:24.540Z,26.52
2018-07-06T07:33:31.237Z,27.56
2018-07-06T07:34:37.913Z,30.47
2018-07-06T07:35:44.608Z,33.08
2018-07-06T07:36:51.293Z,34.94
2018-07-06T07:37:57.977Z,36.14
2018-07-06T07:39:04.684Z,37.48
2018-07-06T07:40:11.380Z,36.76
2018-07-06T07:41:18.082Z,37.36
2018-07-06T07:42:24.793Z,36.22
2018-07-06T07:43:31.501Z,35.59
2018-07-06T07:44:38.233Z,32.71
2018-07-06T07:45:44.940Z,31.97
2018-07-06T07:46:51.660Z,31.18
2018-07-06T07:47:58.369Z,30.00
2018-07-06T07:49:05.090Z,27.39
2018-07-06T07:50:11.781Z,25.42
2018-07-06T07:51:18.468Z,24.62
2018-07-06T07:52:25.192Z,24.06
2018-07-06T07:53:31.834Z,23.45
2018-07-06T07:54:38.630Z,23.03
2018-07-06T07:55:45.190Z,22.45
2018-07-06T07:56:51.863Z,22.05
2018-07-06T07:57:58.821Z,21.74
2018-07-06T07:59:05.206Z,21.62
2018-07-06T08:00:11.852Z,21.54
2018-07-06T08:01:19.631Z,21.46
2018-07-06T08:02:25.141Z,21.47
2018-07-06T08:03:31.904Z,21.46
2018-07-06T08:04:38.449Z,21.48
2018-07-06T08:05:45.094Z,21.54
2018-07-06T08:06:51.748Z,21.72
2018-07-06T08:07:58.398Z,21.66
2018-07-06T08:09:05.058Z,21.72
2018-07-06T08:10:11.698Z,21.92
2018-07-06T08:11:18.345Z,21.77
2018-07-06T08:12:24.975Z,21.61
2018-07-06T08:13:31.628Z,21.53
2018-07-06T08:14:38.308Z,21.58
2018-07-06T08:15:44.922Z,21.67
2018-07-06T08:16:51.567Z,21.67
2018-07-06T08:17:58.219Z,21.63
2018-07-06T08:19:04.868Z,21.54
2018-07-06T08:20:11.520Z,21.52
2018-07-06T08:21:18.166Z,21.54
2018-07-06T08:22:24.837Z,21.50
2018-07-06T08:23:31.477Z,21.52
2018-07-06T08:24:38.239Z,21.47
2018-07-06T08:25:44.792Z,21.62
2018-07-06T08:26:51.602Z,21.74
2018-07-06T08:27:58.093Z,21.82
2018-07-06T08:29:04.748Z,21.90
2018-07-06T08:30:11.410Z,21.76
2018-07-06T08:31:18.050Z,21.67
2018-07-06T08:32:24.705Z,21.62
2018-07-06T08:33:31.363Z,21.59
2018-07-06T08:34:38.010Z,21.57
2018-07-06T08:35:44.676Z,21.63
2018-07-06T08:36:51.326Z,21.78
2018-07-06T08:37:57.987Z,21.97
2018-07-06T08:39:04.642Z,22.04
2018-07-06T08:40:11.310Z,22.10
2018-07-06T08:41:17.950Z,22.13
2018-07-06T08:42:24.612Z,22.12
2018-07-06T08:43:31.267Z,22.11
2018-07-06T08:44:37.934Z,22.04
2018-07-06T08:45:44.601Z,22.04
2018-07-06T08:46:51.259Z,22.04
2018-07-06T08:47:57.924Z,22.15
2018-07-06T08:49:04.589Z,22.28
2018-07-06T08:50:11.256Z,22.20
2018-07-06T08:51:17.916Z,22.24
2018-07-06T08:52:24.591Z,22.23
2018-07-06T08:53:31.253Z,22.17
2018-07-06T08:54:37.919Z,22.20
2018-07-06T08:55:44.600Z,22.29
2018-07-06T08:56:51.265Z,22.34
2018-07-06T08:57:57.928Z,22.36
2018-07-06T08:59:04.600Z,22.51
2018-07-06T09:00:11.277Z,22.54
2018-07-06T09:01:17.945Z,22.52
2018-07-06T09:02:24.619Z,22.60
2018-07-06T09:03:31.306Z,22.65
2018-07-06T09:04:37.997Z,22.78
2018-07-06T09:05:44.672Z,22.76
2018-07-06T09:06:51.341Z,22.68
2018-07-06T09:07:58.024Z,22.64
2018-07-06T09:09:04.718Z,22.50
2018-07-06T09:10:11.394Z,22.56
2018-07-06T09:11:18.080Z,22.59
2018-07-06T09:12:24.759Z,22.61
2018-07-06T09:13:31.444Z,22.70
2018-07-06T09:14:38.134Z,22.83
2018-07-06T09:15:44.817Z,22.99
2018-07-06T09:16:51.510Z,22.95
2018-07-06T09:17:58.191Z,23.04
2018-07-06T09:19:04.897Z,23.01
2018-07-06T09:20:11.709Z,22.97
2018-07-06T09:21:18.267Z,23.05
2018-07-06T09:22:24.957Z,23.10
2018-07-06T09:23:31.654Z,23.08
2018-07-06T09:24:38.370Z,23.05
2018-07-06T09:25:45.149Z,23.19
2018-07-06T09:26:51.759Z,23.40
2018-07-06T09:27:58.451Z,23.50
2018-07-06T09:29:05.153Z,23.46
2018-07-06T09:30:11.855Z,23.49
2018-07-06T09:31:18.558Z,23.56
2018-07-06T09:32:25.294Z,23.57
2018-07-06T09:33:31.993Z,23.60
2018-07-06T09:34:39.168Z,23.69
2018-07-06T09:35:45.415Z,23.81
2018-07-06T09:36:52.095Z,23.75
2018-07-06T09:37:58.804Z,23.83
2018-07-06T09:39:05.516Z,23.73
2018-07-06T09:40:12.220Z,23.89
2018-07-06T09:41:18.942Z,24.08
2018-07-06T09:42:25.648Z,24.04
2018-07-06T09:43:32.359Z,23.97
2018-07-06T09:44:39.084Z,23.91
2018-07-06T09:45:45.948Z,23.90
2018-07-06T09:46:52.516Z,24.03
2018-07-06T09:47:59.225Z,24.19
2018-07-06T09:49:06.946Z,24.20
2018-07-06T09:50:12.669Z,24.11
2018-07-06T09:51:19.394Z,24.03
2018-07-06T09:52:26.108Z,24.10
2018-07-06T09:53:32.831Z,24.18
2018-07-06T09:54:39.560Z,24.27
2018-07-06T09:55:46.275Z,24.36
2018-07-06T09:56:53.995Z,24.51
2018-07-06T09:57:59.792Z,24.64
2018-07-06T09:59:06.462Z,24.64
2018-07-06T10:00:13.195Z,24.64
2018-07-06T10:01:19.950Z,24.61
2018-07-06T10:02:26.648Z,24.55
2018-07-06T10:03:33.395Z,24.50
2018-07-06T10:04:40.116Z,24.49
2018-07-06T10:05:46.929Z,24.51
2018-07-06T10:06:53.586Z,24.59
2018-07-06T10:08:00.322Z,24.76
2018-07-06T10:09:07.048Z,25.00
2018-07-06T10:10:13.981Z,25.19
2018-07-06T10:11:20.553Z,25.36
2018-07-06T10:12:27.336Z,25.58
2018-07-06T10:13:34.051Z,25.65
2018-07-06T10:14:40.823Z,25.58
2018-07-06T10:15:47.577Z,25.63
2018-07-06T10:16:54.312Z,25.57
2018-07-06T10:18:01.064Z,25.59
2018-07-06T10:19:07.921Z,25.72
2018-07-06T10:20:14.585Z,25.83
2018-07-06T10:21:21.360Z,25.67
2018-07-06T10:22:28.106Z,25.59
2018-07-06T10:23:34.864Z,25.45
2018-07-06T10:24:41.627Z,25.38
2018-07-06T10:25:48.393Z,25.37
2018-07-06T10:26:55.151Z,25.36
2018-07-06T10:28:01.906Z,25.44
2018-07-06T10:29:08.669Z,25.47
2018-07-06T10:30:15.444Z,25.57
2018-07-06T10:31:22.223Z,25.64
2018-07-06T10:32:28.976Z,25.73
2018-07-06T10:33:35.829Z,25.74
2018-07-06T10:34:42.539Z,25.84
2018-07-06T10:35:49.310Z,26.11
2018-07-06T10:36:56.096Z,26.22
2018-07-06T10:38:02.895Z,26.56
2018-07-06T10:39:09.911Z,26.89
2018-07-06T10:40:16.776Z,26.81
2018-07-06T10:41:23.291Z,26.82
2018-07-06T10:42:30.084Z,26.83
2018-07-06T10:43:36.873Z,27.15
2018-07-06T10:44:43.690Z,27.40
2018-07-06T10:45:50.500Z,27.21
2018-07-06T10:46:57.308Z,27.13
2018-07-06T10:48:04.132Z,27.00
2018-07-06T10:50:17.769Z,26.87
2018-07-06T10:51:24.609Z,26.76
2018-07-06T10:52:31.463Z,26.57
2018-07-06T10:53:38.776Z,26.49
2018-07-06T10:54:45.115Z,26.45
2018-07-06T10:55:51.965Z,26.54
2018-07-06T10:56:58.795Z,26.08
2018-07-06T10:58:05.658Z,25.86
2018-07-06T10:59:12.483Z,25.73
2018-07-06T11:00:19.352Z,25.65
2018-07-06T11:01:26.293Z,25.61
2018-07-06T11:02:32.997Z,25.45
2018-07-06T11:03:40.169Z,25.28
2018-07-06T11:04:46.661Z,25.16
2018-07-06T11:05:53.492Z,25.18
2018-07-06T11:07:00.358Z,25.27
2018-07-06T11:08:07.178Z,25.41
2018-07-06T11:09:14.101Z,25.52
2018-07-06T11:10:21.072Z,25.57
2018-07-06T11:11:28.191Z,25.52
2018-07-06T11:12:35.289Z,25.51
2018-07-06T11:13:42.501Z,25.40
2018-07-06T11:14:49.806Z,25.49
2018-07-06T11:15:57.106Z,25.57
2018-07-06T11:17:04.489Z,25.66
2018-07-06T11:18:11.975Z,25.64
2018-07-06T11:19:19.371Z,25.84
2018-07-06T11:20:26.872Z,25.90
2018-07-06T11:21:34.609Z,26.05
2018-07-06T11:22:41.989Z,26.17
2018-07-06T11:23:49.596Z,26.22
2018-07-06T11:24:57.263Z,26.14
2018-07-06T11:26:04.798Z,25.93
2018-07-06T11:27:12.329Z,25.93
2018-07-06T11:28:19.899Z,26.03
2018-07-06T11:29:27.527Z,26.04
2018-07-06T11:30:35.205Z,26.02
2018-07-06T11:31:42.889Z,26.09
2018-07-06T11:32:50.702Z,25.94
2018-07-06T11:33:58.370Z,25.94
2018-07-06T11:35:06.170Z,26.04
2018-07-06T11:36:13.946Z,26.16
2018-07-06T11:37:22.760Z,26.22
2018-07-06T11:38:29.610Z,26.19
2018-07-06T11:39:37.463Z,26.07
2018-07-06T11:40:45.312Z,25.81
2018-07-06T11:41:53.157Z,25.77
2018-07-06T11:43:00.979Z,25.84
2018-07-06T11:44:08.750Z,26.04
2018-07-06T11:45:16.622Z,26.14
2018-07-06T11:46:24.362Z,26.19
2018-07-06T11:47:32.233Z,26.38
2018-07-06T11:48:40.110Z,26.24
2018-07-06T11:49:47.936Z,26.14
2018-07-06T11:50:55.760Z,26.10
2018-07-06T11:52:03.541Z,25.79
2018-07-06T11:53:12.233Z,25.67
2018-07-06T11:54:18.889Z,25.71
2018-07-06T11:55:26.577Z,25.92
2018-07-06T11:56:34.330Z,26.17
2018-07-06T11:57:42.126Z,26.29
2018-07-06T11:58:49.967Z,26.39
2018-07-06T11:59:57.908Z,26.51
2018-07-06T12:01:05.731Z,26.54
2018-07-06T12:02:13.636Z,26.53
2018-07-06T12:03:21.558Z,26.57
2018-07-06T12:04:29.571Z,26.64
2018-07-06T12:05:37.475Z,26.65
2018-07-06T12:06:45.463Z,26.58
2018-07-06T12:07:53.477Z,26.59
2018-07-06T12:09:01.501Z,26.57
2018-07-06T12:10:09.528Z,26.62
2018-07-06T12:11:17.578Z,26.75
2018-07-06T12:12:25.652Z,27.04
2018-07-06T12:13:33.723Z,27.21
2018-07-06T12:14:41.911Z,27.31
2018-07-06T12:15:49.929Z,27.19
2018-07-06T12:16:58.045Z,27.15
2018-07-06T12:18:06.171Z,27.18
2018-07-06T12:19:14.280Z,27.08
2018-07-06T12:20:22.518Z,27.19
2018-07-06T12:21:30.589Z,27.20
2018-07-06T12:22:38.631Z,27.30
2018-07-06T12:23:46.739Z,27.28
2018-07-06T12:24:54.860Z,27.48
2018-07-06T12:26:02.982Z,27.51
2018-07-06T12:27:11.112Z,27.26
2018-07-06T12:28:19.256Z,27.09
2018-07-06T12:29:27.376Z,26.97
2018-07-06T12:30:35.490Z,27.04
2018-07-06T12:31:43.809Z,27.16
2018-07-06T12:32:51.738Z,27.09
2018-07-06T12:33:59.844Z,27.15
2018-07-06T12:35:07.944Z,27.10
2018-07-06T12:36:16.060Z,26.94
2018-07-06T12:37:24.133Z,26.85
2018-07-06T12:38:32.214Z,26.79
2018-07-06T12:39:40.281Z,26.77
2018-07-06T12:40:48.350Z,26.83
2018-07-06T12:41:56.852Z,26.89
2018-07-06T12:43:04.448Z,26.81
2018-07-06T12:44:12.490Z,26.79
2018-07-06T12:45:20.539Z,26.83
2018-07-06T12:46:28.598Z,27.04
2018-07-06T12:47:36.658Z,27.20
2018-07-06T12:48:44.796Z,27.43
2018-07-06T12:49:52.776Z,27.47
2018-07-06T12:51:00.847Z,27.31
2018-07-06T12:52:08.919Z,27.32
2018-07-06T12:53:17.017Z,27.22
2018-07-06T12:54:25.098Z,27.11
2018-07-06T12:55:33.149Z,27.15
2018-07-06T12:56:41.219Z,27.27
2018-07-06T12:57:49.282Z,27.15
2018-07-06T12:58:57.334Z,27.08
2018-07-06T13:00:05.368Z,27.00
2018-07-06T13:01:13.402Z,26.90
2018-07-06T13:02:21.438Z,26.92
2018-07-06T13:03:29.506Z,26.97
2018-07-06T13:04:37.479Z,26.97
2018-07-06T13:05:45.502Z,27.17
2018-07-06T13:06:53.515Z,27.21
2018-07-06T13:08:01.539Z,27.30
2018-07-06T13:09:09.550Z,27.39
2018-07-06T13:10:17.585Z,27.61
2018-07-06T13:11:25.589Z,27.83
2018-07-06T13:12:33.614Z,27.73
2018-07-06T13:13:41.635Z,27.70
2018-07-06T13:14:49.661Z,27.69
2018-07-06T13:15:57.667Z,27.71
2018-07-06T13:17:05.694Z,27.52
2018-07-06T13:18:13.711Z,27.47
2018-07-06T13:19:21.705Z,27.44
2018-07-06T13:20:29.709Z,27.50
2018-07-06T13:21:37.709Z,27.48
2018-07-06T13:22:45.687Z,27.32
2018-07-06T13:23:53.972Z,27.21
2018-07-06T13:25:01.617Z,27.26
2018-07-06T13:26:09.558Z,27.27
2018-07-06T13:27:17.507Z,27.36
2018-07-06T13:28:25.461Z,27.40
2018-07-06T13:29:33.362Z,27.22
2018-07-06T13:30:41.290Z,26.99
2018-07-06T13:31:49.213Z,26.88
2018-07-06T13:32:57.128Z,26.90
2018-07-06T13:34:05.024Z,26.89
2018-07-06T13:35:12.925Z,26.90
2018-07-06T13:36:20.895Z,26.94
2018-07-06T13:37:28.671Z,27.21
2018-07-06T13:38:36.549Z,27.28
2018-07-06T13:39:44.416Z,27.45
2018-07-06T13:40:52.276Z,27.49
2018-07-06T13:42:00.145Z,27.70
2018-07-06T13:43:08.019Z,27.69
2018-07-06T13:44:15.885Z,27.61
2018-07-06T13:45:23.756Z,27.76
2018-07-06T13:46:31.626Z,27.71
2018-07-06T13:47:39.466Z,27.38
2018-07-06T13:48:47.292Z,27.37
2018-07-06T13:49:55.119Z,27.34
2018-07-06T13:51:02.934Z,27.20
2018-07-06T13:52:10.689Z,27.19
2018-07-06T13:53:18.443Z,27.37
2018-07-06T13:54:26.174Z,27.70
2018-07-06T13:55:33.932Z,27.94
2018-07-06T13:56:41.708Z,28.23
2018-07-06T13:57:49.476Z,28.29
2018-07-06T13:58:57.328Z,28.38
2018-07-06T14:00:05.077Z,28.59
2018-07-06T14:01:12.886Z,29.19
2018-07-06T14:02:20.735Z,29.79
2018-07-06T14:03:28.615Z,30.31
2018-07-06T14:04:36.506Z,30.38
2018-07-06T14:05:44.461Z,30.26
2018-07-06T14:06:52.345Z,30.36
2018-07-06T14:08:00.280Z,30.71
2018-07-06T14:09:08.238Z,31.16
2018-07-06T14:10:16.206Z,31.44
2018-07-06T14:11:24.198Z,31.50
2018-07-06T14:12:32.200Z,31.10
2018-07-06T14:13:40.216Z,30.44
2018-07-06T14:14:48.209Z,30.13
2018-07-06T14:15:56.201Z,30.18
2018-07-06T14:17:04.209Z,30.19
2018-07-06T14:18:12.229Z,30.26
2018-07-06T14:19:20.237Z,30.14
2018-07-06T14:20:28.250Z,29.98
2018-07-06T14:21:36.253Z,29.98
2018-07-06T14:22:44.346Z,30.07
2018-07-06T14:23:52.261Z,29.99